createdAt,value
2023-11-16T00:00:38.957Z,86.23
2023-11-16T00:01:38.332Z,86.33
2023-11-16T00:02:38.665Z,86.33
2023-11-16T00:03:38.971Z,86.54
2023-11-16T00:04:39.235Z,86.23
2023-11-16T00:05:38.494Z,86.23
2023-11-16T00:06:38.837Z,86.13
2023-11-16T00:07:40.055Z,86.43
2023-11-16T00:08:38.355Z,86.13
2023-11-16T00:09:38.678Z,86.23
2023-11-16T00:10:38.948Z,86.13
2023-11-16T00:11:39.184Z,86.33
2023-11-16T00:12:39.502Z,86.33
2023-11-16T00:13:38.810Z,86.23
2023-11-16T00:14:39.002Z,86.33
2023-11-16T00:15:39.430Z,86.43
2023-11-16T00:16:38.765Z,86.43
2023-11-16T00:17:39.980Z,86.43
2023-11-16T00:18:39.255Z,86.33
2023-11-16T00:19:38.590Z,86.43
2023-11-16T00:20:38.921Z,86.64
2023-11-16T00:21:38.209Z,86.74
2023-11-16T00:22:38.543Z,86.64
2023-11-16T00:23:38.780Z,86.74
2023-11-16T00:24:38.095Z,86.74
2023-11-16T00:25:38.346Z,86.95
2023-11-16T00:26:39.625Z,86.85
2023-11-16T00:27:38.983Z,87.09
2023-11-16T00:28:38.231Z,87.09
2023-11-16T00:29:38.485Z,87.19
2023-11-16T00:30:39.806Z,87.30
2023-11-16T00:31:39.114Z,87.40
2023-11-16T00:32:38.371Z,87.51
2023-11-16T00:33:38.716Z,87.51
2023-11-16T00:34:37.890Z,87.51
2023-11-16T00:35:38.165Z,87.60
2023-11-16T00:36:38.505Z,87.75
2023-11-16T00:37:37.755Z,87.96
2023-11-16T00:38:38.997Z,88.06
2023-11-16T00:39:38.510Z,88.17
2023-11-16T00:40:39.592Z,88.26
2023-11-16T00:41:38.838Z,88.37
2023-11-16T00:42:39.044Z,88.47
2023-11-16T00:43:39.447Z,88.47
2023-11-16T00:44:38.711Z,88.47
2023-11-16T00:45:39.171Z,88.57
2023-11-16T00:46:38.430Z,88.68
2023-11-16T00:47:38.635Z,88.68
2023-11-16T00:48:38.946Z,88.82
2023-11-16T00:49:39.275Z,88.82
2023-11-16T00:50:38.660Z,89.03
2023-11-16T00:51:37.888Z,89.13
2023-11-16T00:52:38.204Z,89.23
2023-11-16T00:53:38.500Z,89.23
2023-11-16T00:54:37.806Z,89.23
2023-11-16T00:55:38.045Z,89.23
2023-11-16T00:56:38.470Z,89.23
2023-11-16T00:57:38.596Z,89.23
2023-11-16T00:58:37.916Z,89.34
2023-11-16T00:59:38.212Z,89.34
2023-11-16T01:00:37.491Z,89.44
2023-11-16T01:01:37.759Z,89.44
2023-11-16T01:02:38.231Z,89.44
2023-11-16T01:03:39.417Z,89.58
2023-11-16T01:04:38.585Z,89.69
2023-11-16T01:05:38.885Z,89.75
2023-11-16T01:06:38.274Z,89.79
2023-11-16T01:07:38.467Z,89.89
2023-11-16T01:08:38.793Z,90.00
2023-11-16T01:09:38.175Z,90.00
2023-11-16T01:10:38.340Z,90.00
2023-11-16T01:11:37.722Z,89.89
2023-11-16T01:12:38.052Z,89.89
2023-11-16T01:13:37.264Z,90.10
2023-11-16T01:14:37.617Z,90.10
2023-11-16T01:15:38.878Z,90.31
2023-11-16T01:16:38.238Z,90.31
2023-11-16T01:17:37.583Z,90.31
2023-11-16T01:18:37.785Z,90.31
2023-11-16T01:19:38.078Z,90.51
2023-11-16T01:20:38.270Z,90.51
2023-11-16T01:21:37.664Z,90.41
2023-11-16T01:22:37.973Z,90.41
2023-11-16T01:23:37.185Z,90.51
2023-11-16T01:24:38.459Z,90.41
2023-11-16T01:25:37.715Z,90.41
2023-11-16T01:26:38.975Z,90.41
2023-11-16T01:27:37.395Z,90.41
2023-11-16T01:28:38.508Z,90.31
2023-11-16T01:29:37.843Z,90.31
2023-11-16T01:30:37.163Z,90.31
2023-11-16T01:31:37.380Z,90.41
2023-11-16T01:32:38.617Z,90.41
2023-11-16T01:33:38.936Z,90.41
2023-11-16T01:34:38.140Z,90.51
2023-11-16T01:35:37.605Z,90.61
2023-11-16T01:36:37.879Z,90.61
2023-11-16T01:37:37.971Z,90.72
2023-11-16T01:38:38.275Z,90.61
2023-11-16T01:39:37.693Z,90.51
2023-11-16T01:40:36.887Z,90.61
2023-11-16T01:41:37.205Z,90.61
2023-11-16T01:42:37.023Z,90.47
2023-11-16T01:43:37.252Z,90.57
2023-11-16T01:44:37.626Z,90.67
2023-11-16T01:45:37.920Z,90.88
2023-11-16T01:46:38.114Z,90.67
2023-11-16T01:47:37.405Z,90.57
2023-11-16T01:48:38.653Z,90.78
2023-11-16T01:49:37.816Z,90.47
2023-11-16T01:50:38.086Z,90.47
2023-11-16T01:51:38.434Z,90.57
2023-11-16T01:52:37.766Z,90.88
2023-11-16T01:53:37.960Z,90.88
2023-11-16T01:54:38.349Z,90.67
2023-11-16T01:55:37.596Z,90.47
2023-11-16T01:56:37.816Z,90.26
2023-11-16T01:57:38.126Z,90.26
2023-11-16T01:58:37.545Z,90.47
2023-11-16T01:59:36.695Z,90.26
2023-11-16T02:00:37.003Z,90.26
2023-11-16T02:01:37.327Z,90.47
2023-11-16T02:02:38.634Z,90.37
2023-11-16T02:03:37.916Z,90.06
2023-11-16T02:04:37.255Z,89.85
2023-11-16T02:05:37.424Z,89.95
2023-11-16T02:06:36.737Z,89.95
2023-11-16T02:07:36.946Z,89.95
2023-11-16T02:08:37.235Z,90.16
2023-11-16T02:09:37.564Z,89.95
2023-11-16T02:10:37.736Z,89.85
2023-11-16T02:11:38.017Z,89.95
2023-11-16T02:12:37.440Z,89.85
2023-11-16T02:13:37.578Z,89.75
2023-11-16T02:14:36.952Z,89.75
2023-11-16T02:15:37.301Z,89.65
2023-11-16T02:16:36.506Z,89.54
2023-11-16T02:17:36.826Z,89.65
2023-11-16T02:18:37.142Z,89.65
2023-11-16T02:19:37.385Z,89.65
2023-11-16T02:20:36.611Z,89.85
2023-11-16T02:21:36.988Z,89.85
2023-11-16T02:22:37.229Z,89.85
2023-11-16T02:23:37.379Z,89.85
2023-11-16T02:24:36.503Z,89.95
2023-11-16T02:25:37.690Z,89.75
2023-11-16T02:26:36.980Z,89.75
2023-11-16T02:27:37.317Z,89.95
2023-11-16T02:28:36.503Z,89.85
2023-11-16T02:29:37.759Z,89.75
2023-11-16T02:30:38.044Z,89.65
2023-11-16T02:31:38.461Z,89.65
2023-11-16T02:32:36.819Z,89.95
2023-11-16T02:33:36.841Z,89.95
2023-11-16T02:34:38.057Z,89.85
2023-11-16T02:35:36.304Z,89.65
2023-11-16T02:36:36.624Z,89.75
2023-11-16T02:37:36.875Z,89.95
2023-11-16T02:38:38.064Z,89.95
2023-11-16T02:39:37.342Z,90.06
2023-11-16T02:40:37.578Z,89.95
2023-11-16T02:41:36.906Z,89.95
2023-11-16T02:42:36.166Z,89.95
2023-11-16T02:43:36.544Z,89.85
2023-11-16T02:44:37.698Z,89.95
2023-11-16T02:45:37.970Z,89.95
2023-11-16T02:46:36.224Z,89.75
2023-11-16T02:47:36.578Z,89.85
2023-11-16T02:48:36.980Z,89.85
2023-11-16T02:49:36.067Z,90.06
2023-11-16T02:50:36.329Z,90.06
2023-11-16T02:51:37.632Z,89.95
2023-11-16T02:52:36.883Z,90.26
2023-11-16T02:53:36.160Z,90.26
2023-11-16T02:54:36.457Z,89.85
2023-11-16T02:55:37.685Z,89.75
2023-11-16T02:56:35.959Z,89.75
2023-11-16T02:57:37.245Z,89.65
2023-11-16T02:58:37.496Z,89.95
2023-11-16T02:59:36.867Z,89.75
2023-11-16T03:00:36.248Z,89.54
2023-11-16T03:01:36.413Z,89.44
2023-11-16T03:02:36.731Z,89.54
2023-11-16T03:03:35.982Z,89.34
2023-11-16T03:04:37.220Z,89.44
2023-11-16T03:05:37.679Z,89.75
2023-11-16T03:06:36.761Z,89.65
2023-11-16T03:07:37.073Z,89.44
2023-11-16T03:08:37.350Z,89.23
2023-11-16T03:09:36.735Z,89.23
2023-11-16T03:10:35.956Z,89.09
2023-11-16T03:11:36.294Z,89.23
2023-11-16T03:12:37.538Z,89.29
2023-11-16T03:13:36.764Z,89.29
2023-11-16T03:14:37.112Z,89.29
2023-11-16T03:15:37.389Z,89.29
2023-11-16T03:16:38.183Z,89.40
2023-11-16T03:17:36.937Z,89.40
2023-11-16T03:18:36.303Z,89.19
2023-11-16T03:19:36.486Z,89.29
2023-11-16T03:20:35.776Z,89.29
2023-11-16T03:21:37.037Z,89.50
2023-11-16T03:22:37.340Z,89.50
2023-11-16T03:23:36.608Z,89.09
2023-11-16T03:24:36.830Z,88.78
2023-11-16T03:25:36.167Z,88.78
2023-11-16T03:26:37.410Z,88.57
2023-11-16T03:27:35.765Z,88.26
2023-11-16T03:28:36.048Z,88.26
2023-11-16T03:29:37.292Z,88.17
2023-11-16T03:30:35.632Z,88.02
2023-11-16T03:31:35.926Z,88.43
2023-11-16T03:32:36.194Z,88.33
2023-11-16T03:33:35.431Z,87.81
2023-11-16T03:34:36.739Z,87.71
2023-11-16T03:35:36.987Z,87.81
2023-11-16T03:36:37.307Z,87.92
2023-11-16T03:37:36.526Z,87.81
2023-11-16T03:38:36.859Z,88.12
2023-11-16T03:39:36.221Z,87.92
2023-11-16T03:40:36.437Z,87.71
2023-11-16T03:41:35.761Z,87.30
2023-11-16T03:42:37.047Z,87.19
2023-11-16T03:43:37.239Z,87.51
2023-11-16T03:44:35.533Z,87.40
2023-11-16T03:45:35.934Z,87.40
2023-11-16T03:46:36.191Z,87.09
2023-11-16T03:47:35.462Z,87.09
2023-11-16T03:48:35.791Z,87.09
2023-11-16T03:49:36.035Z,87.19
2023-11-16T03:50:36.228Z,87.30
2023-11-16T03:51:36.656Z,87.51
2023-11-16T03:52:36.795Z,87.30
2023-11-16T03:53:36.153Z,87.40
2023-11-16T03:54:35.424Z,87.09
2023-11-16T03:55:35.682Z,87.30
2023-11-16T03:56:36.977Z,87.30
2023-11-16T03:57:35.332Z,87.51
2023-11-16T03:58:35.631Z,87.30
2023-11-16T03:59:36.839Z,87.51
2023-11-16T04:00:36.122Z,87.92
2023-11-16T04:01:36.400Z,88.12
2023-11-16T04:02:35.898Z,88.12
2023-11-16T04:03:37.109Z,88.12
2023-11-16T04:04:36.262Z,87.92
2023-11-16T04:05:36.479Z,87.92
2023-11-16T04:06:36.800Z,87.81
2023-11-16T04:07:35.038Z,87.92
2023-11-16T04:08:35.411Z,88.12
2023-11-16T04:09:35.686Z,87.92
2023-11-16T04:10:36.866Z,87.92
2023-11-16T04:11:36.072Z,88.02
2023-11-16T04:12:35.400Z,88.02
2023-11-16T04:13:36.613Z,88.02
2023-11-16T04:14:37.001Z,88.12
2023-11-16T04:15:36.167Z,88.12
2023-11-16T04:16:35.401Z,88.64
2023-11-16T04:17:36.664Z,88.47
2023-11-16T04:18:35.963Z,88.43
2023-11-16T04:19:35.287Z,88.57
2023-11-16T04:20:36.437Z,88.78
2023-11-16T04:21:36.821Z,88.78
2023-11-16T04:22:36.023Z,88.99
2023-11-16T04:23:35.925Z,89.29
2023-11-16T04:24:35.190Z,89.40
2023-11-16T04:25:35.559Z,89.19
2023-11-16T04:26:36.695Z,88.78
2023-11-16T04:27:35.941Z,88.68
2023-11-16T04:28:35.246Z,88.68
2023-11-16T04:29:35.461Z,88.78
2023-11-16T04:30:35.738Z,88.99
2023-11-16T04:31:35.101Z,88.78
2023-11-16T04:32:35.233Z,88.68
2023-11-16T04:33:35.541Z,88.99
2023-11-16T04:34:35.693Z,89.19
2023-11-16T04:35:35.941Z,89.09
2023-11-16T04:36:36.340Z,88.89
2023-11-16T04:37:36.497Z,88.78
2023-11-16T04:38:35.733Z,88.78
2023-11-16T04:39:35.054Z,88.78
2023-11-16T04:40:36.265Z,88.68
2023-11-16T04:41:35.582Z,88.78
2023-11-16T04:42:35.811Z,88.89
2023-11-16T04:43:36.040Z,88.68
2023-11-16T04:44:36.353Z,88.57
2023-11-16T04:45:35.627Z,88.78
2023-11-16T04:46:34.960Z,88.99
2023-11-16T04:47:36.378Z,89.19
2023-11-16T04:48:34.624Z,89.29
2023-11-16T04:49:35.824Z,89.09
2023-11-16T04:50:36.041Z,89.09
2023-11-16T04:51:36.379Z,89.19
2023-11-16T04:52:35.614Z,89.29
2023-11-16T04:53:36.908Z,89.19
2023-11-16T04:54:36.189Z,89.19
2023-11-16T04:55:34.422Z,89.09
2023-11-16T04:56:35.688Z,89.29
2023-11-16T04:57:36.045Z,89.29
2023-11-16T04:58:35.275Z,89.50
2023-11-16T04:59:34.523Z,89.19
2023-11-16T05:00:35.804Z,89.29
2023-11-16T05:01:36.094Z,89.29
2023-11-16T05:02:35.357Z,89.29
2023-11-16T05:03:35.842Z,88.99
2023-11-16T05:04:35.926Z,88.78
2023-11-16T05:05:36.146Z,88.99
2023-11-16T05:06:35.413Z,88.78
2023-11-16T05:07:35.692Z,88.89
2023-11-16T05:08:35.986Z,89.09
2023-11-16T05:09:35.340Z,88.99
2023-11-16T05:10:34.554Z,88.99
2023-11-16T05:11:35.787Z,89.09
2023-11-16T05:12:36.107Z,88.99
2023-11-16T05:13:35.291Z,88.89
2023-11-16T05:14:35.633Z,89.09
2023-11-16T05:15:34.936Z,89.19
2023-11-16T05:16:36.154Z,89.09
2023-11-16T05:17:34.377Z,89.19
2023-11-16T05:18:35.667Z,89.50
2023-11-16T05:19:35.882Z,89.50
2023-11-16T05:20:35.137Z,89.71
2023-11-16T05:21:35.416Z,89.61
2023-11-16T05:22:35.709Z,89.61
2023-11-16T05:23:36.013Z,89.71
2023-11-16T05:24:35.251Z,89.81
2023-11-16T05:25:35.566Z,89.61
2023-11-16T05:26:35.791Z,89.29
2023-11-16T05:27:34.122Z,89.40
2023-11-16T05:28:34.369Z,89.40
2023-11-16T05:29:34.632Z,89.50
2023-11-16T05:30:34.989Z,89.61
2023-11-16T05:31:34.230Z,89.50
2023-11-16T05:32:34.499Z,89.50
2023-11-16T05:33:35.745Z,89.40
2023-11-16T05:34:34.959Z,89.19
2023-11-16T05:35:34.310Z,89.19
2023-11-16T05:36:35.579Z,89.40
2023-11-16T05:37:35.837Z,89.50
2023-11-16T05:38:35.065Z,89.29
2023-11-16T05:39:35.405Z,89.40
2023-11-16T05:40:35.666Z,89.40
2023-11-16T05:41:34.929Z,89.29
2023-11-16T05:42:34.656Z,89.29
2023-11-16T05:43:35.485Z,89.40
2023-11-16T05:44:35.786Z,89.40
2023-11-16T05:45:34.136Z,89.40
2023-11-16T05:46:34.425Z,89.61
2023-11-16T05:47:34.931Z,89.71
2023-11-16T05:48:34.886Z,89.95
2023-11-16T05:49:34.160Z,89.65
2023-11-16T05:50:34.483Z,89.29
2023-11-16T05:51:33.831Z,89.29
2023-11-16T05:52:33.999Z,89.50
2023-11-16T05:53:34.355Z,89.61
2023-11-16T05:54:34.696Z,89.34
2023-11-16T05:55:34.805Z,89.13
2023-11-16T05:56:34.155Z,88.99
2023-11-16T05:57:35.459Z,89.23
2023-11-16T05:58:33.700Z,89.44
2023-11-16T05:59:34.023Z,89.44
2023-11-16T06:00:34.277Z,89.29
2023-11-16T06:01:34.593Z,89.44
2023-11-16T06:02:34.839Z,89.54
2023-11-16T06:03:35.124Z,89.54
2023-11-16T06:04:34.539Z,89.85
2023-11-16T06:05:33.629Z,89.75
2023-11-16T06:06:33.909Z,89.75
2023-11-16T06:07:34.188Z,89.85
2023-11-16T06:08:35.437Z,89.85
2023-11-16T06:09:33.659Z,90.06
2023-11-16T06:10:35.063Z,89.95
2023-11-16T06:11:34.220Z,90.06
2023-11-16T06:12:33.439Z,90.16
2023-11-16T06:13:34.697Z,90.06
2023-11-16T06:14:41.672Z,89.95
2023-11-16T06:15:35.480Z,90.06
2023-11-16T06:16:33.556Z,89.95
2023-11-16T06:17:34.845Z,90.26
2023-11-16T06:18:35.039Z,90.26
2023-11-16T06:19:34.374Z,90.06
2023-11-16T06:20:33.549Z,90.06
2023-11-16T06:21:33.942Z,90.16
2023-11-16T06:22:34.078Z,90.26
2023-11-16T06:23:33.325Z,90.37
2023-11-16T06:24:33.618Z,90.37
2023-11-16T06:25:34.847Z,90.37
2023-11-16T06:26:35.155Z,90.37
2023-11-16T06:27:33.492Z,90.16
2023-11-16T06:28:33.725Z,90.16
2023-11-16T06:29:33.973Z,90.06
2023-11-16T06:30:33.261Z,89.85
2023-11-16T06:31:33.518Z,89.85
2023-11-16T06:32:34.779Z,89.95
2023-11-16T06:33:35.043Z,90.06
2023-11-16T06:34:33.314Z,90.16
2023-11-16T06:35:33.610Z,90.26
2023-11-16T06:36:33.986Z,90.06
2023-11-16T06:37:33.203Z,89.95
2023-11-16T06:38:33.427Z,89.95
2023-11-16T06:39:35.694Z,89.95
2023-11-16T06:40:33.966Z,90.06
2023-11-16T06:41:33.190Z,90.16
2023-11-16T06:42:33.673Z,90.26
2023-11-16T06:43:33.752Z,90.47
2023-11-16T06:44:34.984Z,90.47
2023-11-16T06:45:33.240Z,90.67
2023-11-16T06:46:34.569Z,90.88
2023-11-16T06:47:33.934Z,90.99
2023-11-16T06:48:33.053Z,91.09
2023-11-16T06:49:33.236Z,91.19
2023-11-16T06:50:33.538Z,91.09
2023-11-16T06:51:35.090Z,91.13
2023-11-16T06:52:34.453Z,91.13
2023-11-16T06:53:33.346Z,91.03
2023-11-16T06:54:36.520Z,90.99
2023-11-16T06:55:33.932Z,90.88
2023-11-16T06:56:33.080Z,90.78
2023-11-16T06:57:35.644Z,90.67
2023-11-16T06:58:33.634Z,90.57
2023-11-16T06:59:32.843Z,90.57
2023-11-16T07:00:33.206Z,90.57
2023-11-16T07:01:33.395Z,89.95
2023-11-16T07:02:33.654Z,90.06
2023-11-16T07:03:33.045Z,90.06
2023-11-16T07:04:33.226Z,90.26
2023-11-16T07:05:35.413Z,90.57
2023-11-16T07:06:33.634Z,90.88
2023-11-16T07:07:32.834Z,90.78
2023-11-16T07:08:33.120Z,90.72
2023-11-16T07:09:33.407Z,91.44
2023-11-16T07:10:33.641Z,91.44
2023-11-16T07:11:32.894Z,90.92
2023-11-16T07:12:33.181Z,90.72
2023-11-16T07:13:33.533Z,90.47
2023-11-16T07:14:43.804Z,90.67
2023-11-16T07:15:34.258Z,90.57
2023-11-16T07:16:33.155Z,90.26
2023-11-16T07:17:33.491Z,89.95
2023-11-16T07:18:32.744Z,89.95
2023-11-16T07:19:33.019Z,90.16
2023-11-16T07:20:33.181Z,89.85
2023-11-16T07:21:33.476Z,89.65
2023-11-16T07:22:32.720Z,89.54
2023-11-16T07:23:32.973Z,89.65
2023-11-16T07:24:33.267Z,89.75
2023-11-16T07:25:32.541Z,89.85
2023-11-16T07:26:33.773Z,89.95
2023-11-16T07:27:33.077Z,89.95
2023-11-16T07:28:33.408Z,89.95
2023-11-16T07:29:32.604Z,90.06
2023-11-16T07:30:32.864Z,90.06
2023-11-16T07:31:33.199Z,90.06
2023-11-16T07:32:33.479Z,90.20
2023-11-16T07:33:33.612Z,90.31
2023-11-16T07:34:32.908Z,90.51
2023-11-16T07:35:33.288Z,90.51
2023-11-16T07:36:32.458Z,90.61
2023-11-16T07:37:32.693Z,90.72
2023-11-16T07:38:32.980Z,90.82
2023-11-16T07:39:33.281Z,90.82
2023-11-16T07:40:32.471Z,90.92
2023-11-16T07:41:32.746Z,90.92
2023-11-16T07:42:33.040Z,91.03
2023-11-16T07:43:33.266Z,91.24
2023-11-16T07:44:32.483Z,91.13
2023-11-16T07:45:32.756Z,91.13
2023-11-16T07:46:33.087Z,91.13
2023-11-16T07:47:32.269Z,91.24
2023-11-16T07:48:33.540Z,91.34
2023-11-16T07:49:32.809Z,91.44
2023-11-16T07:50:33.094Z,91.64
2023-11-16T07:51:32.327Z,91.85
2023-11-16T07:52:32.543Z,91.96
2023-11-16T07:53:32.808Z,92.10
2023-11-16T07:54:33.100Z,92.16
2023-11-16T07:55:33.317Z,92.41
2023-11-16T07:56:32.540Z,92.27
2023-11-16T07:57:32.840Z,92.27
2023-11-16T07:58:33.118Z,92.27
2023-11-16T07:59:32.688Z,92.41
2023-11-16T08:00:33.050Z,92.51
2023-11-16T08:01:32.939Z,92.61
2023-11-16T08:02:32.196Z,92.41
2023-11-16T08:03:33.577Z,92.41
2023-11-16T08:04:33.155Z,92.37
2023-11-16T08:05:32.999Z,92.68
2023-11-16T08:06:32.276Z,92.47
2023-11-16T08:07:32.469Z,92.37
2023-11-16T08:08:32.765Z,92.37
2023-11-16T08:09:31.980Z,92.47
2023-11-16T08:10:32.303Z,92.27
2023-11-16T08:11:32.533Z,92.16
2023-11-16T08:12:32.808Z,92.06
2023-11-16T08:13:32.000Z,92.16
2023-11-16T08:14:32.554Z,92.06
2023-11-16T08:15:32.657Z,91.96
2023-11-16T08:16:32.865Z,92.16
2023-11-16T08:17:32.059Z,92.16
2023-11-16T08:18:32.299Z,92.27
2023-11-16T08:19:32.522Z,92.37
2023-11-16T08:20:31.774Z,92.57
2023-11-16T08:21:32.172Z,92.57
2023-11-16T08:22:32.322Z,92.37
2023-11-16T08:23:44.897Z,92.16
2023-11-16T08:24:32.966Z,92.06
2023-11-16T08:25:32.346Z,92.06
2023-11-16T08:26:32.529Z,91.96
2023-11-16T08:27:32.720Z,91.96
2023-11-16T08:28:31.888Z,92.06
2023-11-16T08:29:33.076Z,92.16
2023-11-16T08:30:32.419Z,92.16
2023-11-16T08:31:32.724Z,91.96
2023-11-16T08:32:31.856Z,91.71
2023-11-16T08:33:32.130Z,91.75
2023-11-16T08:34:32.378Z,91.96
2023-11-16T08:35:31.621Z,92.16
2023-11-16T08:36:31.929Z,92.37
2023-11-16T08:37:34.881Z,92.37
2023-11-16T08:38:32.480Z,92.27
2023-11-16T08:39:31.665Z,92.06
2023-11-16T08:40:31.978Z,91.96
2023-11-16T08:41:32.260Z,92.02
2023-11-16T08:42:32.566Z,91.91
2023-11-16T08:43:31.738Z,91.40
2023-11-16T08:44:32.044Z,91.40
2023-11-16T08:45:32.403Z,91.60
2023-11-16T08:46:31.634Z,91.71
2023-11-16T08:47:31.835Z,91.50
2023-11-16T08:48:32.371Z,91.40
2023-11-16T08:49:32.382Z,91.50
2023-11-16T08:50:32.611Z,90.99
2023-11-16T08:51:31.926Z,90.88
2023-11-16T08:52:32.148Z,90.57
2023-11-16T08:53:31.364Z,90.33
2023-11-16T08:54:31.712Z,90.12
2023-11-16T08:55:31.860Z,90.22
2023-11-16T08:56:40.685Z,90.33
2023-11-16T08:57:32.448Z,90.12
2023-11-16T08:58:31.704Z,90.01
2023-11-16T08:59:31.961Z,89.81
2023-11-16T09:00:32.336Z,89.50
2023-11-16T09:01:31.470Z,89.61
2023-11-16T09:02:31.721Z,89.50
2023-11-16T09:03:33.014Z,89.61
2023-11-16T09:04:32.309Z,89.61
2023-11-16T09:05:31.504Z,89.61
2023-11-16T09:06:31.793Z,89.56
2023-11-16T09:07:32.034Z,89.56
2023-11-16T09:08:31.259Z,89.77
2023-11-16T09:09:31.691Z,89.87
2023-11-16T09:10:31.562Z,89.56
2023-11-16T09:11:31.819Z,89.25
2023-11-16T09:12:32.108Z,89.46
2023-11-16T09:13:32.253Z,89.15
2023-11-16T09:14:31.583Z,88.64
2023-11-16T09:15:31.858Z,88.70
2023-11-16T09:16:32.047Z,88.70
2023-11-16T09:17:32.271Z,88.18
2023-11-16T09:18:31.588Z,88.29
2023-11-16T09:19:31.745Z,88.80
2023-11-16T09:20:31.971Z,89.28
2023-11-16T09:21:31.311Z,89.28
2023-11-16T09:22:31.449Z,88.96
2023-11-16T09:23:31.742Z,88.66
2023-11-16T09:24:31.966Z,88.76
2023-11-16T09:25:31.458Z,88.76
2023-11-16T09:26:31.481Z,88.24
2023-11-16T09:27:31.641Z,88.56
2023-11-16T09:28:33.744Z,89.17
2023-11-16T09:29:31.108Z,88.96
2023-11-16T09:30:31.400Z,88.76
2023-11-16T09:31:31.667Z,88.66
2023-11-16T09:32:31.883Z,88.14
2023-11-16T09:33:32.121Z,88.14
2023-11-16T09:34:31.343Z,88.31
2023-11-16T09:35:31.587Z,88.51
2023-11-16T09:36:31.810Z,88.92
2023-11-16T09:37:31.183Z,88.92
2023-11-16T09:38:31.220Z,87.90
2023-11-16T09:39:31.514Z,87.38
2023-11-16T09:40:31.736Z,87.90
2023-11-16T09:41:30.914Z,88.20
2023-11-16T09:42:31.174Z,88.20
2023-11-16T09:43:31.509Z,88.41
2023-11-16T09:44:31.633Z,88.51
2023-11-16T09:45:30.985Z,88.72
2023-11-16T09:46:31.343Z,88.72
2023-11-16T09:47:32.306Z,88.41
2023-11-16T09:48:31.625Z,88.51
2023-11-16T09:49:30.831Z,88.72
2023-11-16T09:50:31.089Z,88.72
2023-11-16T09:51:32.278Z,88.72
2023-11-16T09:52:31.566Z,88.92
2023-11-16T09:53:30.815Z,88.82
2023-11-16T09:54:31.159Z,88.92
2023-11-16T09:55:32.586Z,89.03
2023-11-16T09:56:39.023Z,89.13
2023-11-16T09:57:31.744Z,89.23
2023-11-16T09:58:31.016Z,89.34
2023-11-16T09:59:31.250Z,89.34
2023-11-16T10:00:31.565Z,89.34
2023-11-16T10:01:30.738Z,89.44
2023-11-16T10:02:31.019Z,89.54
2023-11-16T10:03:32.962Z,89.85
2023-11-16T10:04:30.476Z,90.16
2023-11-16T10:05:30.847Z,90.36
2023-11-16T10:06:31.028Z,90.61
2023-11-16T10:07:31.258Z,90.51
2023-11-16T10:08:30.501Z,90.51
2023-11-16T10:09:30.792Z,90.51
2023-11-16T10:10:31.338Z,90.61
2023-11-16T10:11:31.246Z,90.81
2023-11-16T10:12:30.490Z,91.02
2023-11-16T10:13:31.695Z,90.72
2023-11-16T10:14:30.974Z,90.92
2023-11-16T10:15:31.290Z,90.72
2023-11-16T10:16:30.720Z,90.81
2023-11-16T10:17:31.752Z,90.72
2023-11-16T10:18:31.968Z,90.81
2023-11-16T10:19:31.223Z,91.02
2023-11-16T10:20:30.445Z,90.81
2023-11-16T10:21:30.756Z,91.02
2023-11-16T10:22:30.955Z,91.23
2023-11-16T10:23:31.178Z,91.33
2023-11-16T10:24:31.375Z,91.44
2023-11-16T10:25:31.600Z,91.53
2023-11-16T10:26:31.880Z,91.53
2023-11-16T10:27:30.363Z,91.53
2023-11-16T10:28:30.396Z,91.64
2023-11-16T10:29:30.715Z,91.74
2023-11-16T10:30:31.155Z,91.85
2023-11-16T10:31:31.220Z,91.95
2023-11-16T10:32:30.481Z,91.95
2023-11-16T10:33:30.666Z,91.89
2023-11-16T10:34:31.880Z,92.10
2023-11-16T10:35:30.133Z,92.20
2023-11-16T10:36:31.414Z,92.50
2023-11-16T10:37:30.674Z,92.50
2023-11-16T10:38:30.946Z,92.61
2023-11-16T10:39:30.203Z,92.71
2023-11-16T10:40:30.454Z,92.92
2023-11-16T10:41:31.010Z,93.02
2023-11-16T10:42:30.952Z,93.23
2023-11-16T10:43:31.319Z,93.12
2023-11-16T10:44:31.368Z,93.23
2023-11-16T10:45:30.683Z,93.43
2023-11-16T10:46:30.966Z,93.43
2023-11-16T10:47:31.138Z,93.43
2023-11-16T10:48:30.999Z,93.43
2023-11-16T10:49:30.813Z,93.23
2023-11-16T10:50:29.872Z,93.12
2023-11-16T10:51:30.114Z,93.23
2023-11-16T10:52:30.425Z,93.33
2023-11-16T10:53:30.627Z,93.43
2023-11-16T10:54:29.878Z,93.64
2023-11-16T10:55:30.318Z,93.95
2023-11-16T10:56:30.328Z,93.95
2023-11-16T10:57:30.592Z,93.95
2023-11-16T10:58:29.777Z,94.05
2023-11-16T10:59:30.045Z,93.95
2023-11-16T11:00:30.598Z,94.05
2023-11-16T11:01:30.625Z,94.15
2023-11-16T11:02:30.798Z,94.15
2023-11-16T11:03:30.253Z,93.84
2023-11-16T11:04:30.543Z,93.95
2023-11-16T11:05:30.605Z,93.84
2023-11-16T11:06:30.037Z,93.64
2023-11-16T11:07:30.102Z,93.74
2023-11-16T11:08:30.450Z,93.74
2023-11-16T11:09:29.620Z,93.84
2023-11-16T11:10:30.842Z,93.95
2023-11-16T11:11:30.265Z,93.95
2023-11-16T11:12:30.453Z,93.74
2023-11-16T11:13:29.607Z,93.84
2023-11-16T11:14:29.851Z,93.95
2023-11-16T11:15:30.143Z,94.05
2023-11-16T11:16:30.873Z,93.84
2023-11-16T11:17:29.668Z,93.54
2023-11-16T11:18:29.932Z,93.54
2023-11-16T11:19:30.163Z,93.54
2023-11-16T11:20:31.391Z,93.43
2023-11-16T11:21:29.736Z,93.43
2023-11-16T11:22:30.257Z,93.33
2023-11-16T11:23:30.205Z,93.33
2023-11-16T11:24:29.469Z,93.33
2023-11-16T11:25:29.669Z,93.29
2023-11-16T11:26:29.947Z,93.29
2023-11-16T11:27:30.261Z,93.23
2023-11-16T11:28:29.439Z,93.18
2023-11-16T11:29:29.684Z,93.23
2023-11-16T11:30:29.976Z,92.87
2023-11-16T11:31:30.313Z,92.92
2023-11-16T11:32:29.457Z,92.92
2023-11-16T11:33:29.798Z,92.82
2023-11-16T11:34:29.971Z,93.02
2023-11-16T11:35:30.151Z,93.12
2023-11-16T11:36:29.479Z,93.23
2023-11-16T11:37:29.769Z,93.33
2023-11-16T11:38:29.984Z,93.33
2023-11-16T11:39:29.292Z,93.43
2023-11-16T11:40:30.503Z,93.54
2023-11-16T11:41:29.773Z,93.64
2023-11-16T11:42:30.106Z,93.64
2023-11-16T11:43:30.393Z,93.59
2023-11-16T11:44:29.572Z,93.59
2023-11-16T11:45:30.870Z,93.59
2023-11-16T11:46:30.086Z,93.39
2023-11-16T11:47:29.316Z,93.29
2023-11-16T11:48:29.664Z,93.18
2023-11-16T11:49:29.808Z,93.18
2023-11-16T11:50:29.042Z,93.08
2023-11-16T11:51:29.376Z,93.08
2023-11-16T11:52:29.599Z,93.08
2023-11-16T11:53:29.911Z,92.87
2023-11-16T11:54:29.108Z,92.87
2023-11-16T11:55:29.353Z,92.87
2023-11-16T11:56:30.562Z,92.87
2023-11-16T11:57:35.165Z,92.87
2023-11-16T11:58:30.073Z,92.77
2023-11-16T11:59:30.403Z,92.87
2023-11-16T12:00:29.606Z,92.97
2023-11-16T12:01:29.856Z,92.97
2023-11-16T12:02:29.078Z,92.97
2023-11-16T12:03:29.593Z,92.97
2023-11-16T12:04:29.700Z,92.97
2023-11-16T12:05:29.025Z,93.08
2023-11-16T12:06:29.142Z,93.29
2023-11-16T12:07:29.402Z,93.39
2023-11-16T12:08:30.577Z,93.39
2023-11-16T12:09:28.912Z,93.39
2023-11-16T12:10:29.179Z,93.49
2023-11-16T12:11:29.401Z,93.49
2023-11-16T12:12:29.730Z,93.39
2023-11-16T12:13:28.923Z,93.29
2023-11-16T12:14:36.070Z,93.29
2023-11-16T12:15:30.554Z,93.18
2023-11-16T12:16:30.641Z,93.18
2023-11-16T12:17:29.002Z,93.18
2023-11-16T12:18:29.139Z,93.29
2023-11-16T12:19:30.276Z,93.39
2023-11-16T12:20:29.543Z,93.49
2023-11-16T12:21:28.793Z,93.49
2023-11-16T12:22:29.932Z,93.49
2023-11-16T12:23:29.240Z,93.59
2023-11-16T12:24:30.117Z,93.49
2023-11-16T12:25:28.839Z,93.49
2023-11-16T12:26:29.041Z,93.49
2023-11-16T12:27:29.205Z,93.39
2023-11-16T12:28:29.431Z,93.39
2023-11-16T12:29:29.585Z,93.18
2023-11-16T12:30:29.890Z,93.18
2023-11-16T12:31:29.273Z,93.18
2023-11-16T12:32:30.795Z,93.29
2023-11-16T12:33:28.653Z,93.18
2023-11-16T12:34:29.844Z,93.18
2023-11-16T12:35:29.161Z,93.08
2023-11-16T12:36:28.483Z,93.18
2023-11-16T12:37:28.712Z,93.29
2023-11-16T12:38:29.200Z,93.49
2023-11-16T12:39:30.295Z,93.54
2023-11-16T12:40:28.434Z,93.49
2023-11-16T12:41:28.677Z,93.49
2023-11-16T12:42:28.987Z,93.49
2023-11-16T12:43:29.248Z,93.64
2023-11-16T12:44:28.436Z,93.84
2023-11-16T12:45:28.722Z,93.84
2023-11-16T12:46:29.055Z,93.95
2023-11-16T12:47:37.424Z,94.05
2023-11-16T12:48:29.528Z,94.05
2023-11-16T12:49:28.656Z,94.15
2023-11-16T12:50:28.936Z,94.15
2023-11-16T12:51:30.167Z,94.05
2023-11-16T12:52:28.393Z,94.05